Time;durP1;ratioP1;P1;durP2;ratioP2;P2;SDS_P1;SDS_P2;PMS_P1;PMS_P2;Temp;Humidity;BMP_temperature;BMP_pressure;BME280_temperature;BME280_humidity;BME280_pressure;Samples;Min_cycle;Max_cycle;Signal;HPM_P1;HPM_P2
2023/08/12 00:01:27;;;;;;;9.50;8.60;;;19.40;99.90;;;;;;4995674;28;20200;-77
2023/08/12 00:03:55;;;;;;;5.27;4.77;;;19.40;99.90;;;;;;4990318;28;20197;-77
2023/08/12 00:06:21;;;;;;;5.50;4.93;;;19.40;99.90;;;;;;4995272;28;20256;-77
2023/08/12 00:08:48;;;;;;;6.53;5.87;;;19.40;99.90;;;;;;4986520;28;20224;-77
2023/08/12 00:11:15;;;;;;;9.10;8.40;;;19.40;99.90;;;;;;4983906;28;20201;-76
2023/08/12 00:13:42;;;;;;;5.17;4.17;;;19.30;99.90;;;;;;4992365;28;20204;-77
2023/08/12 00:16:10;;;;;;;5.03;4.10;;;19.30;99.90;;;;;;4989873;28;20667;-77
2023/08/12 00:18:37;;;;;;;5.53;4.57;;;19.30;99.90;;;;;;4995608;28;20200;-77
2023/08/12 00:21:07;;;;;;;5.13;3.90;;;19.30;99.90;;;;;;4994917;28;20217;-77
2023/08/12 00:23:38;;;;;;;4.53;3.87;;;19.30;99.90;;;;;;4994736;28;20583;-77
2023/08/12 00:26:05;;;;;;;4.63;3.97;;;19.20;99.90;;;;;;4994030;28;20628;-77
2023/08/12 00:28:32;;;;;;;6.13;5.60;;;19.20;99.90;;;;;;4995685;28;20219;-77
2023/08/12 00:30:59;;;;;;;11.10;10.30;;;19.20;99.90;;;;;;4992804;28;20216;-77
2023/08/12 00:33:27;;;;;;;6.17;5.67;;;19.20;99.90;;;;;;4991878;28;20264;-77
2023/08/12 00:35:54;;;;;;;8.40;7.70;;;19.10;99.90;;;;;;4993840;28;20212;-77
2023/08/12 00:38:21;;;;;;;7.77;7.07;;;19.10;99.90;;;;;;4986727;28;20197;-77
2023/08/12 00:40:47;;;;;;;9.10;8.30;;;19.00;99.90;;;;;;4993512;28;20224;-77
2023/08/12 00:43:14;;;;;;;9.50;8.70;;;19.00;99.90;;;;;;4986183;28;20200;-77
2023/08/12 00:45:41;;;;;;;8.33;7.70;;;19.00;99.90;;;;;;4991948;28;20633;-77
2023/08/12 00:48:09;;;;;;;9.03;8.33;;;19.00;99.90;;;;;;5009878;28;20238;-77
2023/08/12 00:50:38;;;;;;;8.67;7.93;;;18.90;99.90;;;;;;4993339;28;20236;-78
2023/08/12 00:53:06;;;;;;;8.50;7.80;;;18.90;99.90;;;;;;4993800;28;20201;-79
2023/08/12 00:55:33;;;;;;;7.83;7.23;;;18.90;99.90;;;;;;4985790;28;20280;-77
2023/08/12 00:58:00;;;;;;;9.83;8.93;;;18.90;99.90;;;;;;4989474;28;20668;-77
2023/08/12 01:00:27;;;;;;;8.50;7.80;;;18.90;99.90;;;;;;4989915;28;20663;-77
2023/08/12 01:02:57;;;;;;;8.53;7.83;;;18.90;99.90;;;;;;4993538;28;20200;-77
2023/08/12 01:05:24;;;;;;;8.60;7.90;;;18.80;99.90;;;;;;4994932;28;20200;-77
2023/08/12 01:07:53;;;;;;;9.30;8.50;;;18.90;99.90;;;;;;4989615;28;20231;-77
2023/08/12 01:10:22;;;;;;;9.20;8.40;;;18.90;99.90;;;;;;4993249;28;20259;-76
2023/08/12 01:12:55;;;;;;;8.47;7.73;;;18.80;99.90;;;;;;4992092;28;20209;-77
2023/08/12 01:15:26;;;;;;;9.07;8.27;;;18.80;99.90;;;;;;4990701;28;20232;-76
2023/08/12 01:17:55;;;;;;;9.80;8.90;;;18.80;99.90;;;;;;4999621;28;20726;-77
2023/08/12 01:20:25;;;;;;;9.30;8.50;;;18.80;99.90;;;;;;4992851;28;20292;-77
2023/08/12 01:22:58;;;;;;;8.67;7.97;;;18.70;99.90;;;;;;4993004;28;20211;-77
2023/08/12 01:25:26;;;;;;;8.37;7.77;;;18.70;99.90;;;;;;4989521;28;20240;-77
2023/08/12 01:27:53;;;;;;;8.57;7.87;;;18.70;99.90;;;;;;4994168;28;20596;-77
2023/08/12 01:30:22;;;;;;;8.80;8.10;;;18.70;99.90;;;;;;4982043;28;20232;-77
2023/08/12 01:32:56;;;;;;;8.13;7.53;;;18.60;99.90;;;;;;4990725;28;20215;-77
2023/08/12 01:35:29;;;;;;;9.10;8.40;;;18.60;99.90;;;;;;4993255;28;20212;-77
2023/08/12 01:37:59;;;;;;;8.80;8.10;;;18.60;99.90;;;;;;4993021;28;20230;-77
2023/08/12 01:40:30;;;;;;;8.53;7.83;;;18.50;99.90;;;;;;4992480;28;20228;-76
2023/08/12 01:42:57;;;;;;;8.97;8.27;;;18.50;99.90;;;;;;4998166;28;20552;-77
2023/08/12 01:45:24;;;;;;;8.80;8.07;;;18.50;99.90;;;;;;5001148;28;20199;-77
2023/08/12 01:47:51;;;;;;;9.13;8.43;;;18.50;99.90;;;;;;4991628;28;20585;-77
2023/08/12 01:50:18;;;;;;;9.03;8.33;;;18.50;99.90;;;;;;4992604;28;20272;-77
2023/08/12 01:52:45;;;;;;;8.70;8.07;;;18.50;99.90;;;;;;4992630;28;20202;-77
2023/08/12 01:55:12;;;;;;;8.73;8.03;;;18.50;99.90;;;;;;4994183;28;20211;-77
2023/08/12 01:57:40;;;;;;;9.00;8.30;;;18.50;99.90;;;;;;4994091;28;20207;-77
2023/08/12 02:00:08;;;;;;;8.47;7.87;;;18.50;99.90;;;;;;4993517;28;20798;-77
2023/08/12 02:02:46;;;;;;;11.90;11.10;;;18.40;99.90;;;;;;4994133;28;20198;-77
2023/08/12 02:05:13;;;;;;;8.80;8.00;;;18.50;99.90;;;;;;4994291;28;20737;-77
2023/08/12 02:07:40;;;;;;;8.43;7.83;;;18.50;99.90;;;;;;4994393;28;20397;-77
2023/08/12 02:10:10;;;;;;;8.93;8.23;;;18.50;99.90;;;;;;4994000;28;20755;-77
2023/08/12 02:12:37;;;;;;;9.50;8.80;;;18.50;99.90;;;;;;4989006;28;20203;-77
2023/08/12 02:15:07;;;;;;;8.87;8.17;;;18.50;99.90;;;;;;5005513;28;20293;-77
2023/08/12 02:17:34;;;;;;;8.97;8.37;;;18.50;99.90;;;;;;4992297;28;20670;-77
2023/08/12 02:20:01;;;;;;;9.27;8.47;;;18.60;99.90;;;;;;4991953;28;20218;-77
2023/08/12 02:22:29;;;;;;;10.73;9.93;;;18.50;99.90;;;;;;5006001;28;20203;-77
2023/08/12 02:24:56;;;;;;;8.90;8.20;;;18.50;99.90;;;;;;4992818;28;20301;-77
2023/08/12 02:27:23;;;;;;;8.60;7.90;;;18.50;99.90;;;;;;4992202;28;20253;-76
2023/08/12 02:29:49;;;;;;;8.50;7.80;;;18.50;99.90;;;;;;4991416;28;20232;-77
2023/08/12 02:32:17;;;;;;;8.67;7.97;;;18.50;99.90;;;;;;5003212;28;20199;-77
2023/08/12 02:34:46;;;;;;;8.63;7.93;;;18.50;99.90;;;;;;4998212;28;20257;-77
2023/08/12 02:37:13;;;;;;;9.23;8.53;;;18.50;99.90;;;;;;4988543;28;20209;-77
2023/08/12 02:39:40;;;;;;;8.70;8.00;;;18.50;99.90;;;;;;4995836;28;20650;-77
2023/08/12 02:42:07;;;;;;;8.47;7.67;;;18.50;99.90;;;;;;4990108;28;20527;-77
2023/08/12 02:44:33;;;;;;;9.03;8.13;;;18.50;99.90;;;;;;4990396;28;20225;-77
2023/08/12 02:47:00;;;;;;;8.47;7.87;;;18.50;99.90;;;;;;4996649;28;20205;-77
2023/08/12 02:49:28;;;;;;;8.43;7.83;;;18.50;99.90;;;;;;5014227;28;20233;-77
2023/08/12 02:51:55;;;;;;;8.33;7.73;;;18.50;99.90;;;;;;4989989;28;20207;-77
2023/08/12 02:54:22;;;;;;;7.73;7.13;;;18.50;99.90;;;;;;4998452;28;20229;-77
2023/08/12 02:56:51;;;;;;;9.10;8.40;;;18.50;99.90;;;;;;4997699;28;20687;-77
2023/08/12 02:59:18;;;;;;;8.30;7.70;;;18.50;99.90;;;;;;4998518;28;20218;-77
2023/08/12 03:01:44;;;;;;;8.80;8.10;;;18.50;99.90;;;;;;4997743;28;20241;-77
2023/08/12 03:04:12;;;;;;;8.90;8.20;;;18.50;99.90;;;;;;4998570;28;20217;-77
2023/08/12 03:06:40;;;;;;;8.83;8.17;;;18.50;99.90;;;;;;5014397;28;20726;-77
2023/08/12 03:09:07;;;;;;;9.10;8.40;;;18.60;99.90;;;;;;5014144;28;20226;-77
2023/08/12 03:11:35;;;;;;;8.90;8.20;;;18.60;99.90;;;;;;4998850;28;20240;-77
2023/08/12 03:14:04;;;;;;;9.20;8.50;;;18.60;99.90;;;;;;4994862;28;20694;-77
2023/08/12 03:16:31;;;;;;;8.83;8.10;;;18.70;99.90;;;;;;4993109;28;20711;-77
2023/08/12 03:18:58;;;;;;;8.93;8.23;;;18.70;99.90;;;;;;4996057;28;20197;-77
2023/08/12 03:21:25;;;;;;;9.30;8.50;;;18.70;99.90;;;;;;4992780;28;20206;-77
2023/08/12 03:23:54;;;;;;;9.50;8.80;;;18.70;99.90;;;;;;4998504;28;20634;-77
2023/08/12 03:26:21;;;;;;;8.60;8.00;;;18.70;99.90;;;;;;4992481;28;20558;-77
2023/08/12 03:28:48;;;;;;;8.67;7.77;;;18.70;99.90;;;;;;4989943;28;20582;-77
2023/08/12 03:31:18;;;;;;;9.77;8.97;;;18.70;99.90;;;;;;4997439;28;20202;-77
2023/08/12 03:33:46;;;;;;;9.43;8.73;;;18.70;99.90;;;;;;4983207;28;20265;-77
2023/08/12 03:36:15;;;;;;;9.57;8.77;;;18.70;99.90;;;;;;4995218;28;20691;-77
2023/08/12 03:38:42;;;;;;;9.97;9.20;;;18.70;99.90;;;;;;4997949;28;20216;-80
2023/08/12 03:41:26;;;;;;;9.23;8.53;;;18.70;99.90;;;;;;4995014;28;20670;-80
2023/08/12 03:43:54;;;;;;;9.23;8.53;;;18.70;99.90;;;;;;4995059;28;20199;-81
2023/08/12 03:46:21;;;;;;;9.53;8.73;;;18.70;99.90;;;;;;4997276;28;20194;-81
2023/08/12 03:48:48;;;;;;;9.50;8.80;;;18.70;99.90;;;;;;5001684;28;20242;-82
2023/08/12 03:51:15;;;;;;;10.20;9.40;;;18.70;99.90;;;;;;4998344;28;20218;-83
2023/08/12 03:53:41;;;;;;;9.20;8.50;;;18.70;99.90;;;;;;4996943;28;20206;-81
2023/08/12 03:56:08;;;;;;;9.90;9.20;;;18.80;99.90;;;;;;4989155;28;20199;-82
2023/08/12 03:58:37;;;;;;;10.07;9.27;;;18.80;99.90;;;;;;5014399;28;20636;-81
2023/08/12 04:01:04;;;;;;;9.90;9.13;;;18.80;99.90;;;;;;4997717;28;20228;-82
2023/08/12 04:03:31;;;;;;;9.73;8.93;;;18.80;99.90;;;;;;4998211;28;20310;-81
2023/08/12 04:05:58;;;;;;;9.50;8.70;;;18.80;99.90;;;;;;4998729;28;20218;-81
2023/08/12 04:08:25;;;;;;;9.30;8.50;;;18.80;99.90;;;;;;4995788;28;20242;-82
2023/08/12 04:10:52;;;;;;;6.27;5.30;;;18.80;99.90;;;;;;5013528;28;20244;-82
2023/08/12 04:13:19;;;;;;;5.63;4.87;;;18.80;99.90;;;;;;4997604;28;20344;-80
2023/08/12 04:15:53;;;;;;;5.60;5.00;;;18.80;99.90;;;;;;4994625;28;20228;-84
2023/08/12 04:18:20;;;;;;;5.80;5.20;;;18.90;99.90;;;;;;4992923;28;20585;-82
2023/08/12 04:20:47;;;;;;;5.60;5.10;;;18.90;99.90;;;;;;4994699;28;20281;-80
2023/08/12 04:23:14;;;;;;;5.77;5.07;;;18.90;99.90;;;;;;4988464;28;20406;-81
2023/08/12 04:25:44;;;;;;;7.60;5.43;;;18.80;99.90;;;;;;4994400;28;20203;-80
2023/08/12 04:28:11;;;;;;;6.63;5.50;;;18.90;99.90;;;;;;4990548;28;20208;-80
2023/08/12 04:30:41;;;;;;;6.77;5.00;;;18.90;99.90;;;;;;4990481;28;20220;-80
2023/08/12 04:33:10;;;;;;;8.07;7.37;;;18.90;99.90;;;;;;4988704;28;20219;-86
2023/08/12 04:35:37;;;;;;;8.40;7.70;;;18.90;99.90;;;;;;5001474;28;20697;-77
2023/08/12 04:38:04;;;;;;;7.67;7.07;;;18.90;99.90;;;;;;4983308;28;20702;-77
2023/08/12 04:40:32;;;;;;;9.20;8.50;;;18.90;99.90;;;;;;5003747;28;20215;-77
2023/08/12 04:42:59;;;;;;;8.90;8.30;;;18.90;99.90;;;;;;4980159;28;20296;-78
2023/08/12 04:45:27;;;;;;;7.50;6.90;;;19.00;99.90;;;;;;4989536;28;20209;-78
2023/08/12 04:47:54;;;;;;;8.17;7.47;;;19.00;99.90;;;;;;4988605;28;20567;-77
2023/08/12 04:50:22;;;;;;;7.63;7.00;;;19.00;99.90;;;;;;5006622;28;20293;-78
2023/08/12 04:52:49;;;;;;;7.30;6.70;;;19.10;99.90;;;;;;5008410;28;20195;-77
2023/08/12 04:55:20;;;;;;;8.70;8.10;;;19.10;99.90;;;;;;4992404;28;20366;-77
2023/08/12 04:57:47;;;;;;;7.87;7.27;;;19.10;99.90;;;;;;4986943;28;20203;-77
2023/08/12 05:00:14;;;;;;;9.23;8.53;;;19.10;99.90;;;;;;4992955;28;20302;-78
2023/08/12 05:02:41;;;;;;;7.90;7.23;;;19.10;99.90;;;;;;4993347;28;20804;-78
2023/08/12 05:05:08;;;;;;;8.40;7.77;;;19.20;99.90;;;;;;4984831;28;20254;-78
2023/08/12 05:07:37;;;;;;;7.57;6.87;;;19.20;99.90;;;;;;4980400;28;20196;-78
2023/08/12 05:10:04;;;;;;;8.30;7.70;;;19.30;99.90;;;;;;4991850;28;20226;-77
2023/08/12 05:12:32;;;;;;;8.17;7.57;;;19.30;99.90;;;;;;4991219;28;20200;-78
2023/08/12 05:15:01;;;;;;;8.30;7.70;;;19.50;99.90;;;;;;4985371;28;20545;-78
2023/08/12 05:17:28;;;;;;;5.67;4.40;;;19.40;99.90;;;;;;4992923;28;20206;-76
2023/08/12 05:19:55;;;;;;;5.03;4.33;;;19.50;99.90;;;;;;4990581;28;20228;-78
2023/08/12 05:22:22;;;;;;;5.57;4.17;;;19.60;99.90;;;;;;4992577;28;20248;-76
2023/08/12 05:24:50;;;;;;;5.37;4.80;;;19.70;99.90;;;;;;4990454;28;20205;-83
2023/08/12 05:27:17;;;;;;;5.40;4.33;;;19.70;99.90;;;;;;4991301;28;20200;-79
2023/08/12 05:29:44;;;;;;;4.97;4.47;;;19.80;99.90;;;;;;4992631;28;20244;-77
2023/08/12 05:32:11;;;;;;;5.87;5.07;;;19.90;99.90;;;;;;4991505;28;20671;-82
2023/08/12 05:34:38;;;;;;;6.20;5.20;;;19.90;99.90;;;;;;4991013;28;20200;-80
2023/08/12 05:37:04;;;;;;;6.07;5.30;;;19.90;99.90;;;;;;5010885;28;20216;-81
2023/08/12 05:39:31;;;;;;;4.70;4.07;;;20.00;99.90;;;;;;4995505;28;20213;-80
2023/08/12 05:41:59;;;;;;;6.47;5.87;;;20.10;99.90;;;;;;4993847;28;20195;-79
2023/08/12 05:44:26;;;;;;;7.80;4.77;;;20.10;99.90;;;;;;4986870;28;20559;-81
2023/08/12 05:46:53;;;;;;;4.93;4.47;;;20.30;99.90;;;;;;4981856;28;20669;-77
2023/08/12 05:49:20;;;;;;;5.67;4.00;;;20.40;99.90;;;;;;4987084;28;20234;-78
2023/08/12 05:51:47;;;;;;;5.23;4.27;;;20.60;99.90;;;;;;4986798;28;20287;-77
2023/08/12 05:54:14;;;;;;;4.87;4.37;;;20.70;99.90;;;;;;4990318;28;20585;-76
2023/08/12 05:56:40;;;;;;;5.43;4.30;;;20.80;99.90;;;;;;4991703;28;20204;-77
2023/08/12 05:59:08;;;;;;;6.63;6.03;;;20.90;99.90;;;;;;4991350;28;20719;-77
2023/08/12 06:01:35;;;;;;;6.50;6.00;;;21.10;99.90;;;;;;4990373;28;20199;-77
2023/08/12 06:04:02;;;;;;;6.07;5.57;;;21.30;99.90;;;;;;4989105;28;20636;-76
2023/08/12 06:06:29;;;;;;;6.87;6.30;;;21.50;99.90;;;;;;4991136;28;20204;-77
2023/08/12 06:08:56;;;;;;;6.20;5.70;;;21.70;99.90;;;;;;4991050;28;20194;-77
2023/08/12 06:11:22;;;;;;;6.63;6.03;;;21.90;99.90;;;;;;4985136;28;20217;-77
2023/08/12 06:13:49;;;;;;;7.47;6.87;;;22.20;99.90;;;;;;4989913;28;20576;-77
2023/08/12 06:16:17;;;;;;;7.27;6.67;;;22.30;99.90;;;;;;4991476;28;20233;-77
2023/08/12 06:18:44;;;;;;;5.20;4.50;;;22.50;99.90;;;;;;4990192;28;20196;-77
2023/08/12 06:21:11;;;;;;;4.60;4.20;;;22.60;99.90;;;;;;4990162;28;20233;-77
2023/08/12 06:23:38;;;;;;;4.90;4.40;;;22.80;99.90;;;;;;4991866;28;20256;-77
2023/08/12 06:26:04;;;;;;;7.60;7.00;;;22.90;99.90;;;;;;4985507;28;20563;-76
2023/08/12 06:28:31;;;;;;;8.93;8.03;;;23.00;99.90;;;;;;4988395;28;20201;-83
2023/08/12 06:30:58;;;;;;;6.40;5.80;;;23.00;99.90;;;;;;4988414;28;20228;-82
2023/08/12 06:33:27;;;;;;;6.50;5.90;;;23.00;99.90;;;;;;4984012;28;20197;-77
2023/08/12 06:35:54;;;;;;;8.43;7.83;;;23.10;99.90;;;;;;5007735;28;20192;-79
2023/08/12 06:38:20;;;;;;;9.23;8.53;;;23.20;99.90;;;;;;4994151;28;20217;-79
2023/08/12 06:40:48;;;;;;;6.77;6.07;;;23.30;99.90;;;;;;5002660;28;20213;-79
2023/08/12 06:43:14;;;;;;;5.80;5.30;;;23.50;99.90;;;;;;4993559;28;20200;-79
2023/08/12 06:45:41;;;;;;;8.30;7.60;;;23.80;99.90;;;;;;4996818;28;20194;-80
2023/08/12 06:48:08;;;;;;;5.60;5.10;;;24.20;99.90;;;;;;4996857;28;20202;-79
2023/08/12 06:50:36;;;;;;;7.40;6.70;;;24.60;99.90;;;;;;4992763;28;20599;-79
2023/08/12 06:53:03;;;;;;;7.27;6.67;;;24.70;99.90;;;;;;4992777;28;20205;-79
2023/08/12 06:55:30;;;;;;;8.57;7.97;;;24.60;99.90;;;;;;4996556;28;20268;-78
2023/08/12 06:57:57;;;;;;;7.63;7.03;;;24.60;99.90;;;;;;4996091;28;20201;-81
2023/08/12 07:00:24;;;;;;;5.47;4.37;;;24.30;99.90;;;;;;5005500;28;20225;-82
2023/08/12 07:02:50;;;;;;;4.73;4.17;;;24.10;99.90;;;;;;4995379;28;20193;-82
2023/08/12 07:05:17;;;;;;;5.53;4.30;;;24.00;99.90;;;;;;4994881;28;20381;-82
2023/08/12 07:07:45;;;;;;;7.23;6.63;;;23.90;99.90;;;;;;5002776;28;20228;-83
2023/08/12 07:10:12;;;;;;;8.03;7.33;;;24.00;99.90;;;;;;4995005;28;20213;-82
2023/08/12 07:12:39;;;;;;;7.93;7.13;;;24.10;99.90;;;;;;4991605;28;20194;-83
2023/08/12 07:15:07;;;;;;;8.20;7.40;;;24.20;99.90;;;;;;4993076;28;20193;-81
2023/08/12 07:17:33;;;;;;;7.80;7.17;;;24.20;99.90;;;;;;4993787;28;20206;-83
2023/08/12 07:20:00;;;;;;;7.50;6.83;;;24.50;99.90;;;;;;4995118;28;20240;-82
2023/08/12 07:22:27;;;;;;;4.50;4.10;;;24.60;99.90;;;;;;4995245;28;20196;-83
2023/08/12 07:24:55;;;;;;;5.57;4.53;;;24.70;99.90;;;;;;4996834;28;20264;-83
2023/08/12 07:27:22;;;;;;;8.90;8.20;;;24.80;99.90;;;;;;4998488;28;20201;-83
2023/08/12 07:29:49;;;;;;;9.23;8.30;;;25.00;99.90;;;;;;4998439;28;20225;-83
2023/08/12 07:32:15;;;;;;;5.80;5.20;;;25.30;99.90;;;;;;4999561;28;20267;-83
2023/08/12 07:34:42;;;;;;;4.77;4.17;;;25.80;99.90;;;;;;4999826;28;20213;-82
2023/08/12 07:37:09;;;;;;;4.20;3.80;;;26.10;99.90;;;;;;4995486;28;20358;-83
2023/08/12 07:39:36;;;;;;;7.67;6.97;;;26.90;99.90;;;;;;4994532;28;20244;-83
2023/08/12 07:42:05;;;;;;;8.07;7.47;;;27.40;99.90;;;;;;4990903;28;20293;-83
2023/08/12 07:44:32;;;;;;;9.13;8.43;;;27.90;99.90;;;;;;4981787;28;20208;-84
2023/08/12 07:46:58;;;;;;;9.23;8.43;;;28.20;99.90;;;;;;4989475;28;20217;-84
2023/08/12 07:49:25;;;;;;;9.20;8.50;;;28.20;99.90;;;;;;4990821;28;20238;-82
2023/08/12 07:51:52;;;;;;;8.70;8.00;;;28.20;99.90;;;;;;4994844;28;20225;-83
2023/08/12 07:54:19;;;;;;;9.83;7.97;;;28.40;99.90;;;;;;4987987;28;20255;-81
2023/08/12 07:56:46;;;;;;;7.97;7.27;;;28.70;99.90;;;;;;4994299;28;20194;-80
2023/08/12 07:59:14;;;;;;;7.80;7.20;;;29.20;99.90;;;;;;4991158;28;20244;-80
2023/08/12 08:01:41;;;;;;;9.20;8.50;;;29.40;99.90;;;;;;4996157;28;20204;-81
2023/08/12 08:04:07;;;;;;;8.17;7.57;;;29.60;99.90;;;;;;4997750;28;20684;-82
2023/08/12 08:06:34;;;;;;;8.53;7.93;;;30.10;99.90;;;;;;4987723;28;20197;-80
2023/08/12 08:09:03;;;;;;;9.23;8.53;;;30.40;99.90;;;;;;4998513;28;20726;-81
2023/08/12 08:11:31;;;;;;;8.93;8.23;;;30.50;99.90;;;;;;5007573;28;20276;-82
2023/08/12 08:13:59;;;;;;;9.13;8.43;;;30.40;99.90;;;;;;4995459;28;20242;-80
2023/08/12 08:16:27;;;;;;;9.00;8.20;;;30.10;99.90;;;;;;5012774;28;20228;-81
2023/08/12 08:18:54;;;;;;;7.50;6.80;;;30.40;99.90;;;;;;4994009;28;20202;-82
2023/08/12 08:21:21;;;;;;;9.47;8.67;;;30.80;99.90;;;;;;4995375;28;20201;-82
2023/08/12 08:23:48;;;;;;;6.70;6.10;;;30.80;99.90;;;;;;4991539;28;20244;-82
2023/08/12 08:26:15;;;;;;;8.80;8.10;;;30.90;99.90;;;;;;4989492;28;20684;-81
2023/08/12 08:28:42;;;;;;;8.90;8.10;;;30.60;99.90;;;;;;4993316;28;20209;-81
2023/08/12 08:31:09;;;;;;;8.67;7.97;;;30.50;99.90;;;;;;4980908;28;20595;-81
2023/08/12 08:33:37;;;;;;;7.93;7.33;;;30.20;99.90;;;;;;4993036;28;20196;-81
2023/08/12 08:36:05;;;;;;;8.67;8.00;;;29.80;99.90;;;;;;4988030;28;20209;-81
2023/08/12 08:38:32;;;;;;;8.50;7.73;;;29.70;99.90;;;;;;4992668;28;20193;-80
2023/08/12 08:40:59;;;;;;;8.30;7.50;;;29.90;99.90;;;;;;4991953;28;20218;-80
2023/08/12 08:43:27;;;;;;;8.00;7.40;;;30.30;99.90;;;;;;4995175;28;20209;-81
2023/08/12 08:45:55;;;;;;;8.30;7.70;;;30.30;99.90;;;;;;4996014;28;20193;-81
2023/08/12 08:48:22;;;;;;;7.90;7.10;;;30.20;99.90;;;;;;4986716;28;20666;-81
2023/08/12 08:50:52;;;;;;;8.07;7.37;;;30.10;99.90;;;;;;4997074;28;20225;-81
2023/08/12 08:53:19;;;;;;;8.27;7.40;;;29.80;99.90;;;;;;4998135;28;20240;-81
2023/08/12 08:55:47;;;;;;;8.07;7.40;;;29.60;99.90;;;;;;4995115;28;20193;-81
2023/08/12 08:58:13;;;;;;;8.17;7.50;;;29.40;99.90;;;;;;4994230;28;20212;-81
2023/08/12 09:00:41;;;;;;;8.53;7.93;;;29.40;99.90;;;;;;4990913;28;20213;-81
2023/08/12 09:03:09;;;;;;;8.50;7.80;;;29.50;99.90;;;;;;4998052;28;20730;-82
2023/08/12 09:05:38;;;;;;;8.17;7.50;;;30.20;99.90;;;;;;4993613;28;20204;-81
2023/08/12 09:08:10;;;;;;;7.10;6.40;;;30.90;99.90;;;;;;5012703;28;20205;-81
2023/08/12 09:10:40;;;;;;;7.13;6.50;;;31.30;99.90;;;;;;4994181;28;20217;-82
2023/08/12 09:13:08;;;;;;;6.97;6.47;;;31.40;99.90;;;;;;4995981;28;20201;-82
2023/08/12 09:15:35;;;;;;;7.30;6.70;;;31.60;99.90;;;;;;5012735;28;20291;-81
2023/08/12 09:18:02;;;;;;;6.93;6.32;;;31.50;99.90;;;;;;4998096;28;20197;-81
2023/08/12 09:20:29;;;;;;;6.70;6.18;;;31.50;99.90;;;;;;4994573;28;20280;-82
2023/08/12 09:22:58;;;;;;;7.00;6.40;;;31.40;99.90;;;;;;4995896;28;20256;-82
2023/08/12 09:25:27;;;;;;;6.83;6.30;;;31.10;99.90;;;;;;5012314;28;20228;-81
2023/08/12 09:28:00;;;;;;;6.95;6.38;;;30.90;99.90;;;;;;4995521;28;20288;-82
2023/08/12 09:30:30;;;;;;;6.63;6.13;;;30.80;99.90;;;;;;4992786;28;20228;-82
2023/08/12 09:33:02;;;;;;;6.60;6.10;;;30.70;99.90;;;;;;4995129;28;20189;-81
2023/08/12 09:35:34;;;;;;;7.47;6.17;;;30.70;99.90;;;;;;4988438;28;20229;-81
2023/08/12 09:38:03;;;;;;;6.83;6.03;;;30.80;99.90;;;;;;4995903;28;20189;-81
2023/08/12 09:40:32;;;;;;;6.33;5.73;;;30.90;99.90;;;;;;4993870;28;20311;-81
2023/08/12 09:42:59;;;;;;;6.70;6.20;;;31.00;99.90;;;;;;4987930;28;20221;-81
2023/08/12 09:45:27;;;;;;;6.47;5.97;;;31.00;99.90;;;;;;4995182;28;20200;-81
2023/08/12 09:47:55;;;;;;;6.13;5.63;;;31.10;99.90;;;;;;4993110;28;20590;-81
2023/08/12 09:50:23;;;;;;;6.72;6.20;;;31.10;99.90;;;;;;5027535;23;20228;-77
2023/08/12 09:52:50;;;;;;;6.70;6.20;;;31.10;99.90;;;;;;5023749;28;20719;-76
2023/08/12 09:55:18;;;;;;;6.63;6.13;;;31.20;99.90;;;;;;5024329;28;20236;-77
2023/08/12 09:57:49;;;;;;;7.30;6.70;;;31.10;99.90;;;;;;5016284;28;20190;-77
2023/08/12 10:00:18;;;;;;;6.93;6.43;;;31.00;99.90;;;;;;4996883;28;20296;-77
2023/08/12 10:02:46;;;;;;;6.27;5.87;;;30.90;99.90;;;;;;4990584;28;20194;-77
2023/08/12 10:05:17;;;;;;;6.50;6.00;;;30.90;99.90;;;;;;4992965;28;20236;-77
2023/08/12 10:07:46;;;;;;;6.70;6.10;;;30.80;99.90;;;;;;4986864;28;20310;-77
2023/08/12 10:10:13;;;;;;;6.77;6.27;;;30.80;99.90;;;;;;4992615;28;20225;-77
2023/08/12 10:12:41;;;;;;;6.67;6.17;;;30.80;99.90;;;;;;4989721;28;20628;-77
2023/08/12 10:15:10;;;;;;;7.37;6.50;;;30.60;99.90;;;;;;4995489;28;20201;-77
2023/08/12 10:17:37;;;;;;;6.80;6.30;;;30.40;99.90;;;;;;5000525;28;20205;-77
2023/08/12 10:20:06;;;;;;;6.80;6.20;;;30.40;99.90;;;;;;4991617;28;20218;-77
2023/08/12 10:22:35;;;;;;;6.37;5.87;;;30.30;99.90;;;;;;4993653;28;20197;-78
2023/08/12 10:25:03;;;;;;;6.70;6.10;;;30.30;99.90;;;;;;4991224;28;20201;-77
2023/08/12 10:27:30;;;;;;;6.30;5.80;;;30.40;99.90;;;;;;4992165;28;20735;-77
2023/08/12 10:29:57;;;;;;;6.17;5.67;;;30.60;99.90;;;;;;5002046;28;20256;-77
2023/08/12 10:32:26;;;;;;;6.40;5.73;;;30.70;99.90;;;;;;4996605;28;20252;-77
2023/08/12 10:34:57;;;;;;;6.23;5.70;;;30.90;99.90;;;;;;4998285;28;20288;-80
2023/08/12 10:37:25;;;;;;;5.93;5.43;;;30.90;99.90;;;;;;4987749;28;20194;-78
2023/08/12 10:39:53;;;;;;;6.40;5.90;;;30.80;99.90;;;;;;4989015;28;20221;-78
2023/08/12 10:42:42;;;;;;;6.10;5.60;;;30.70;99.90;;;;;;5004024;28;20261;-77
2023/08/12 10:45:10;;;;;;;5.90;5.40;;;30.60;99.90;;;;;;5008269;28;20197;-78
2023/08/12 10:47:41;;;;;;;6.47;5.90;;;30.70;99.90;;;;;;4996517;28;20662;-77
2023/08/12 10:50:18;;;;;;;5.83;5.33;;;31.00;99.90;;;;;;4989133;28;20232;-77
2023/08/12 10:52:45;;;;;;;5.90;5.50;;;31.50;99.90;;;;;;4985234;28;20241;-77
2023/08/12 10:55:20;;;;;;;6.85;6.13;;;32.00;99.90;;;;;;4995271;28;20202;-77
2023/08/12 10:57:48;;;;;;;6.13;5.63;;;32.30;99.90;;;;;;4989471;28;20233;-77
2023/08/12 11:00:16;;;;;;;6.22;5.63;;;32.20;99.90;;;;;;4999928;28;20213;-78
2023/08/12 11:02:50;;;;;;;6.07;5.57;;;32.10;99.90;;;;;;4991721;28;20201;-77
2023/08/12 11:05:18;;;;;;;5.83;5.43;;;32.10;99.90;;;;;;4999976;28;21091;-76
2023/08/12 11:07:47;;;;;;;5.60;5.20;;;31.70;99.90;;;;;;4991773;28;20560;-76
2023/08/12 11:10:16;;;;;;;5.70;5.30;;;31.40;99.90;;;;;;4994286;28;20695;-76
2023/08/12 11:12:49;;;;;;;6.30;5.80;;;31.30;99.90;;;;;;4990410;28;20308;-76
2023/08/12 11:15:15;;;;;;;6.73;6.03;;;31.20;99.90;;;;;;4984021;28;20193;-76
2023/08/12 11:17:43;;;;;;;6.13;5.63;;;31.10;99.90;;;;;;4986278;28;20239;-76
2023/08/12 11:20:13;;;;;;;6.13;5.57;;;31.10;99.90;;;;;;4985777;28;20284;-76
2023/08/12 11:22:41;;;;;;;5.67;5.20;;;31.10;99.90;;;;;;4986718;28;20201;-75
2023/08/12 11:25:09;;;;;;;6.60;6.00;;;31.30;99.90;;;;;;4982288;28;20577;-76
2023/08/12 11:27:39;;;;;;;6.10;5.50;;;31.30;99.90;;;;;;5001043;28;20247;-76
2023/08/12 11:30:07;;;;;;;6.03;5.50;;;31.40;99.90;;;;;;4991453;28;20596;-76
2023/08/12 11:32:34;;;;;;;5.60;5.00;;;31.40;99.90;;;;;;4983337;28;20259;-76
2023/08/12 11:35:00;;;;;;;5.23;4.83;;;31.40;99.90;;;;;;4985043;28;20261;-76
2023/08/12 11:37:29;;;;;;;5.23;4.83;;;31.60;99.90;;;;;;4983505;28;20558;-75
2023/08/12 11:39:55;;;;;;;5.33;4.90;;;31.80;99.90;;;;;;4993840;28;20256;-76
2023/08/12 11:42:22;;;;;;;4.77;4.37;;;32.00;99.90;;;;;;4983850;28;20213;-76
2023/08/12 11:44:49;;;;;;;5.50;5.10;;;32.10;99.90;;;;;;4993785;28;20669;-76
2023/08/12 11:47:16;;;;;;;5.60;5.13;;;32.20;99.90;;;;;;4985928;28;20268;-75
2023/08/12 11:49:43;;;;;;;5.77;5.17;;;32.20;99.90;;;;;;4987021;28;20225;-76
2023/08/12 11:52:10;;;;;;;5.55;5.13;;;32.20;99.90;;;;;;4990453;28;20214;-76
2023/08/12 11:54:39;;;;;;;5.60;5.18;;;32.20;99.90;;;;;;4994980;28;20228;-75
2023/08/12 11:57:06;;;;;;;6.27;5.20;;;32.10;99.90;;;;;;4979011;28;20198;-76
2023/08/12 11:59:33;;;;;;;5.63;5.23;;;32.00;99.90;;;;;;4988193;28;20597;-75
2023/08/12 12:02:03;;;;;;;5.60;5.10;;;32.00;99.90;;;;;;4994223;28;20205;-76
2023/08/12 12:04:32;;;;;;;6.00;5.40;;;31.80;99.90;;;;;;4994923;28;20201;-75
2023/08/12 12:06:59;;;;;;;5.50;5.00;;;31.70;99.90;;;;;;4985301;28;20197;-76
2023/08/12 12:09:26;;;;;;;5.20;4.80;;;31.60;99.90;;;;;;4985418;28;20201;-76
2023/08/12 12:11:54;;;;;;;5.67;4.97;;;31.30;99.90;;;;;;4992622;28;20245;-76
2023/08/12 12:14:22;;;;;;;5.60;5.10;;;31.10;99.90;;;;;;4993452;28;20232;-76
2023/08/12 12:16:50;;;;;;;5.40;4.90;;;31.00;99.90;;;;;;4987257;28;20193;-77
2023/08/12 12:19:18;;;;;;;5.87;5.30;;;30.90;99.90;;;;;;4987875;28;20288;-75
2023/08/12 12:21:48;;;;;;;5.87;5.37;;;30.80;99.90;;;;;;4985129;28;20648;-76
2023/08/12 12:24:15;;;;;;;5.60;5.10;;;30.80;99.90;;;;;;4984841;28;20193;-76
2023/08/12 12:26:42;;;;;;;5.47;4.97;;;30.80;99.90;;;;;;4985967;28;20264;-76
2023/08/12 12:29:11;;;;;;;5.33;4.93;;;30.70;99.90;;;;;;4987483;28;20257;-76
2023/08/12 12:31:38;;;;;;;5.33;4.83;;;30.60;99.90;;;;;;4996408;28;20698;-76
2023/08/12 12:34:06;;;;;;;5.63;5.13;;;30.50;99.90;;;;;;4987617;28;20255;-79
2023/08/12 12:36:34;;;;;;;6.13;5.60;;;30.30;99.90;;;;;;4982558;28;20202;-80
2023/08/12 12:39:01;;;;;;;6.97;6.37;;;29.90;99.90;;;;;;4983559;28;20210;-77
2023/08/12 12:41:28;;;;;;;4.57;3.30;;;29.60;99.90;;;;;;4996922;28;20272;-79
2023/08/12 12:43:55;;;;;;;7.50;6.90;;;29.20;99.90;;;;;;4983921;28;20249;-78
2023/08/12 12:46:23;;;;;;;7.13;6.53;;;28.90;99.90;;;;;;4979517;28;20551;-77
2023/08/12 12:48:50;;;;;;;7.90;7.03;;;28.50;99.90;;;;;;4984404;28;20252;-76